aviador You're here:

KSHN Decoded Metar

SHELTON in WA, USA
Report Time2018-01-17 08:53:00
UTC Time2018-01-17 09:19:06
Flight Rules vfr VFR
Wind130° at 03 kt
W.Decomp.*RWY 05: 1.5 kt HW 2.6 kt RCW
W.Rank130° ranks 17
Current wind is below 130° avg. (5.0)
Visibility9999 m
Phenomena:N/A
Clouds:Broken 120 Hf
Expected CloudBase > 400 ft AGL from Temp-Dew spread
Ceiling12,000 ft
Temp06°C (ISA -8)
Dew Point05°C (93% RH)
AAT3.8°C
QNH1018 hPa
Density Alt-804 ft
Elevation269 ft
Report Wrong Elevation
Raw Report
METAR KSHN 170853Z AUTO 13003KT 10SM BKN120 06/05 A3007 RMK AO2 SLP187
T00560050 58028=

Extra information for KSHN:More info

Metar Taf Metar & Taf Last 4 Metars F.Rules Stats Wind Profile Meteogram Temp Stats Airport Information Weather charts Add Link Nearby VenuesMetar ALERT Operation Metar Decoded Social comments

AIRNAV info for KSHN